createdAt,value
2023-05-25T00:01:31.096Z,20.97
2023-05-25T00:04:00.506Z,20.95
2023-05-25T00:06:27.796Z,20.95
2023-05-25T00:08:55.525Z,20.96
2023-05-25T00:11:23.381Z,20.95
2023-05-25T00:13:50.360Z,20.96
2023-05-25T00:16:16.742Z,20.95
2023-05-25T00:18:43.343Z,20.94
2023-05-25T00:21:10.614Z,20.93
2023-05-25T00:23:36.968Z,20.93
2023-05-25T00:26:03.353Z,20.93
2023-05-25T00:28:29.748Z,20.93
2023-05-25T00:30:56.370Z,20.92
2023-05-25T00:33:22.864Z,20.91
2023-05-25T00:35:49.708Z,20.91
2023-05-25T00:38:18.757Z,20.90
2023-05-25T00:40:45.334Z,20.90
2023-05-25T00:43:11.778Z,20.88
2023-05-25T00:45:38.335Z,20.88
2023-05-25T00:48:05.007Z,20.87
2023-05-25T00:50:41.887Z,20.85
2023-05-25T00:53:08.712Z,20.82
2023-05-25T00:55:41.852Z,20.84
2023-05-25T00:58:08.413Z,20.85
2023-05-25T01:00:37.458Z,20.83
2023-05-25T01:03:04.660Z,20.83
2023-05-25T01:05:31.074Z,20.83
2023-05-25T01:07:57.430Z,20.82
2023-05-25T01:10:23.794Z,20.81
2023-05-25T01:12:50.568Z,20.81
2023-05-25T01:15:16.935Z,20.81
2023-05-25T01:17:43.763Z,20.81
2023-05-25T01:20:12.039Z,20.81
2023-05-25T01:22:43.279Z,20.81
2023-05-25T01:25:13.649Z,20.81
2023-05-25T01:27:41.133Z,20.82
2023-05-25T01:30:08.513Z,20.80
2023-05-25T01:32:35.357Z,20.79
2023-05-25T01:35:02.151Z,20.79
2023-05-25T01:37:28.623Z,20.79
2023-05-25T01:39:55.103Z,20.78
2023-05-25T01:42:21.469Z,20.78
2023-05-25T01:44:47.818Z,20.76
2023-05-25T01:47:33.028Z,20.76
2023-05-25T01:50:14.637Z,20.74
2023-05-25T01:52:41.971Z,20.74
2023-05-25T01:55:08.799Z,20.74
2023-05-25T01:57:36.082Z,20.74
2023-05-25T02:00:03.169Z,20.73
2023-05-25T02:02:29.613Z,20.72
2023-05-25T02:04:56.218Z,20.74
2023-05-25T02:07:22.739Z,20.81
2023-05-25T02:09:49.103Z,20.82
2023-05-25T02:12:15.487Z,20.84
2023-05-25T02:14:41.916Z,20.86
2023-05-25T02:17:08.328Z,20.85
2023-05-25T02:19:34.922Z,20.83
2023-05-25T02:22:01.295Z,20.84
2023-05-25T02:24:27.717Z,20.86
2023-05-25T02:26:54.077Z,20.85
2023-05-25T02:29:20.502Z,20.78
2023-05-25T02:31:47.295Z,20.85
2023-05-25T02:34:13.874Z,20.84
2023-05-25T02:36:43.310Z,20.85
2023-05-25T02:39:10.195Z,20.83
2023-05-25T02:41:37.101Z,20.81
2023-05-25T02:44:04.088Z,20.79
2023-05-25T02:46:30.546Z,20.80
2023-05-25T02:48:57.180Z,20.82
2023-05-25T02:51:23.598Z,20.83
2023-05-25T02:53:50.581Z,20.82
2023-05-25T02:56:16.952Z,20.85
2023-05-25T02:58:43.318Z,20.85
2023-05-25T03:01:10.916Z,20.87
2023-05-25T03:03:38.684Z,20.89
2023-05-25T03:06:05.122Z,20.91
2023-05-25T03:08:31.507Z,20.90
2023-05-25T03:10:57.870Z,20.92
2023-05-25T03:13:24.483Z,20.92
2023-05-25T03:15:51.050Z,20.93
2023-05-25T03:18:17.443Z,20.95
2023-05-25T03:20:44.071Z,20.96
2023-05-25T03:23:10.571Z,20.97
2023-05-25T03:25:36.952Z,21.00
2023-05-25T03:28:03.429Z,21.00
2023-05-25T03:30:30.531Z,20.99
2023-05-25T03:32:57.272Z,21.01
2023-05-25T03:35:23.680Z,21.00
2023-05-25T03:37:50.074Z,20.98
2023-05-25T03:40:16.472Z,20.98
2023-05-25T03:42:43.534Z,20.97
2023-05-25T03:45:10.136Z,20.96
2023-05-25T03:47:36.614Z,20.95
2023-05-25T03:50:07.069Z,20.95
2023-05-25T03:52:33.435Z,20.94
2023-05-25T03:55:01.762Z,20.95
2023-05-25T03:57:28.611Z,20.93
2023-05-25T03:59:55.363Z,20.92
2023-05-25T04:02:22.200Z,20.88
2023-05-25T04:04:50.919Z,20.90
2023-05-25T04:07:18.781Z,20.90
2023-05-25T04:09:45.158Z,20.91
2023-05-25T04:12:11.573Z,20.92
2023-05-25T04:14:37.960Z,20.94
2023-05-25T04:17:04.422Z,20.97
2023-05-25T04:19:30.807Z,20.99
2023-05-25T04:21:57.392Z,21.01
2023-05-25T04:24:23.779Z,21.00
2023-05-25T04:26:50.339Z,21.02
2023-05-25T04:29:17.332Z,21.02
2023-05-25T04:31:45.751Z,21.02
2023-05-25T04:34:14.450Z,21.03
2023-05-25T04:36:42.537Z,21.01
2023-05-25T04:39:08.997Z,21.03
2023-05-25T04:41:35.947Z,21.02
2023-05-25T04:44:09.821Z,21.02
2023-05-25T04:46:40.716Z,21.01
2023-05-25T04:49:08.475Z,20.99
2023-05-25T04:51:35.787Z,20.97
2023-05-25T04:54:02.350Z,20.97
2023-05-25T04:56:28.817Z,20.98
2023-05-25T04:58:55.181Z,20.98
2023-05-25T05:01:21.571Z,20.99
2023-05-25T05:03:47.959Z,20.98
2023-05-25T05:06:14.388Z,20.98
2023-05-25T05:08:41.695Z,20.97
2023-05-25T05:11:08.165Z,20.96
2023-05-25T05:13:34.540Z,20.96
2023-05-25T05:16:01.234Z,20.97
2023-05-25T05:18:29.139Z,20.96
2023-05-25T05:20:55.672Z,20.96
2023-05-25T05:23:22.071Z,20.97
2023-05-25T05:25:48.433Z,20.98
2023-05-25T05:28:15.063Z,20.98
2023-05-25T05:30:41.481Z,20.99
2023-05-25T05:33:07.897Z,20.97
2023-05-25T05:35:34.288Z,20.97
2023-05-25T05:38:00.657Z,20.97
2023-05-25T05:40:27.252Z,20.96
2023-05-25T05:42:53.630Z,20.97
2023-05-25T05:45:19.988Z,20.96
2023-05-25T05:47:46.478Z,20.97
2023-05-25T05:50:12.848Z,20.98
2023-05-25T05:52:39.216Z,20.98
2023-05-25T05:55:06.320Z,20.98
2023-05-25T05:57:32.720Z,21.02
2023-05-25T05:59:59.220Z,21.01
2023-05-25T06:02:25.829Z,21.02
2023-05-25T06:04:52.280Z,21.04
2023-05-25T06:07:18.666Z,21.03
2023-05-25T06:09:45.063Z,21.03
2023-05-25T06:12:11.436Z,21.04
2023-05-25T06:14:37.816Z,21.03
2023-05-25T06:17:04.340Z,21.05
2023-05-25T06:19:30.901Z,21.04
2023-05-25T06:21:57.286Z,21.04
2023-05-25T06:24:23.686Z,21.06
2023-05-25T06:26:50.062Z,21.06
2023-05-25T06:29:17.366Z,21.06
2023-05-25T06:31:43.971Z,21.07
2023-05-25T06:34:10.430Z,21.07
2023-05-25T06:36:37.155Z,21.07
2023-05-25T06:39:03.575Z,21.06
2023-05-25T06:41:30.734Z,21.04
2023-05-25T06:43:57.121Z,21.07
2023-05-25T06:46:23.577Z,21.07
2023-05-25T06:48:50.042Z,21.00
2023-05-25T06:51:17.189Z,21.01
2023-05-25T06:53:44.469Z,20.98
2023-05-25T06:56:11.034Z,20.98
2023-05-25T06:58:37.394Z,20.97
2023-05-25T07:01:03.854Z,21.04
2023-05-25T07:03:30.307Z,21.12
2023-05-25T07:05:56.689Z,21.13
2023-05-25T07:08:23.067Z,21.11
2023-05-25T07:10:50.305Z,21.11
2023-05-25T07:13:16.954Z,21.13
2023-05-25T07:15:43.680Z,21.13
2023-05-25T07:18:12.595Z,21.11
2023-05-25T07:20:42.032Z,21.13
2023-05-25T07:23:10.061Z,21.12
2023-05-25T07:25:36.567Z,21.11
2023-05-25T07:28:02.996Z,21.10
2023-05-25T07:30:30.133Z,21.10
2023-05-25T07:32:58.204Z,21.10
2023-05-25T07:35:24.722Z,21.11
2023-05-25T07:38:00.889Z,21.10
2023-05-25T07:40:27.593Z,21.09
2023-05-25T07:42:54.066Z,21.07
2023-05-25T07:45:20.995Z,21.08
2023-05-25T07:47:47.549Z,21.09
2023-05-25T07:50:14.263Z,21.07
2023-05-25T07:52:40.690Z,21.11
2023-05-25T07:55:07.488Z,21.06
2023-05-25T07:57:34.141Z,21.07
2023-05-25T08:00:00.550Z,21.12
2023-05-25T08:02:27.039Z,21.12
2023-05-25T08:04:53.809Z,21.09
2023-05-25T08:07:20.867Z,21.09
2023-05-25T08:09:47.239Z,21.10
2023-05-25T08:12:34.207Z,21.11
2023-05-25T08:14:59.964Z,21.10
2023-05-25T08:17:26.726Z,21.10
2023-05-25T08:19:54.153Z,21.10
2023-05-25T08:22:20.522Z,21.09
2023-05-25T08:24:46.973Z,21.07
2023-05-25T08:27:13.378Z,21.04
2023-05-25T08:29:39.752Z,21.14
2023-05-25T08:32:06.152Z,21.15
2023-05-25T08:34:32.549Z,21.14
2023-05-25T08:36:59.039Z,21.16
2023-05-25T08:39:25.621Z,21.18
2023-05-25T08:41:52.058Z,21.13
2023-05-25T08:44:18.507Z,21.18
2023-05-25T08:46:46.162Z,21.18
2023-05-25T08:49:13.267Z,21.18
2023-05-25T08:51:43.370Z,21.19
2023-05-25T08:54:10.348Z,21.16
2023-05-25T08:56:41.811Z,21.12
2023-05-25T08:59:28.504Z,21.09
2023-05-25T09:02:27.640Z,21.09
2023-05-25T09:04:54.045Z,21.16
2023-05-25T09:07:20.433Z,21.19
2023-05-25T09:09:47.344Z,21.21
2023-05-25T09:12:13.725Z,21.18
2023-05-25T09:14:45.651Z,21.26
2023-05-25T09:17:13.386Z,21.24
2023-05-25T09:19:39.990Z,21.26
2023-05-25T09:22:15.038Z,21.26
2023-05-25T09:24:44.281Z,21.27
2023-05-25T09:27:11.128Z,21.27
2023-05-25T09:29:37.783Z,21.28
2023-05-25T09:32:04.619Z,21.28
2023-05-25T09:34:34.005Z,21.29
2023-05-25T09:37:04.023Z,21.29
2023-05-25T09:39:30.583Z,21.29
2023-05-25T09:41:57.339Z,21.33
2023-05-25T09:44:23.732Z,21.32
2023-05-25T09:46:50.091Z,21.31
2023-05-25T09:49:16.517Z,21.30
2023-05-25T09:51:42.917Z,21.30
2023-05-25T09:54:09.632Z,21.30
2023-05-25T09:56:36.037Z,21.30
2023-05-25T09:59:02.824Z,21.28
2023-05-25T10:01:29.237Z,21.33
2023-05-25T10:04:05.539Z,21.35
2023-05-25T10:06:33.308Z,21.36
2023-05-25T10:09:00.128Z,21.38
2023-05-25T10:11:26.898Z,21.40
2023-05-25T10:13:53.418Z,21.41
2023-05-25T10:16:19.885Z,21.40
2023-05-25T10:18:46.241Z,21.43
2023-05-25T10:21:12.641Z,21.44
2023-05-25T10:23:45.549Z,21.47
2023-05-25T10:26:13.049Z,21.51
2023-05-25T10:28:39.992Z,21.51
2023-05-25T10:31:06.937Z,21.51
2023-05-25T10:33:33.863Z,21.54
2023-05-25T10:36:09.089Z,21.56
2023-05-25T10:38:37.392Z,21.56
2023-05-25T10:41:04.183Z,21.56
2023-05-25T10:43:30.556Z,21.59
2023-05-25T10:45:57.551Z,21.66
2023-05-25T10:48:24.525Z,21.69
2023-05-25T10:50:51.257Z,21.67
2023-05-25T10:53:20.782Z,21.67
2023-05-25T10:55:53.290Z,21.68
2023-05-25T10:58:22.964Z,21.69
2023-05-25T11:01:02.369Z,21.72
2023-05-25T11:03:44.505Z,21.77
2023-05-25T11:06:11.614Z,21.79
2023-05-25T11:08:56.724Z,21.82
2023-05-25T11:11:24.013Z,21.87
2023-05-25T11:13:50.498Z,21.86
2023-05-25T11:16:19.979Z,21.88
2023-05-25T11:18:59.523Z,21.90
2023-05-25T11:21:41.118Z,21.89
2023-05-25T11:24:17.003Z,21.90
2023-05-25T11:26:54.079Z,21.89
2023-05-25T11:29:20.837Z,21.91
2023-05-25T11:31:49.399Z,21.92
2023-05-25T11:34:15.802Z,21.92
2023-05-25T11:36:42.202Z,21.95
2023-05-25T11:39:20.632Z,21.99
2023-05-25T11:41:56.011Z,22.03
2023-05-25T11:44:27.238Z,22.05
2023-05-25T11:46:54.450Z,22.07
2023-05-25T11:49:21.243Z,22.06
2023-05-25T11:51:47.630Z,22.05
2023-05-25T11:54:26.672Z,22.04
2023-05-25T11:56:53.865Z,22.06
2023-05-25T11:59:20.239Z,22.08
2023-05-25T12:01:55.074Z,22.10
2023-05-25T12:04:23.873Z,22.10
2023-05-25T12:06:50.777Z,22.13
2023-05-25T12:09:21.892Z,22.14
2023-05-25T12:11:48.329Z,22.15
2023-05-25T12:14:14.748Z,22.11
2023-05-25T12:16:41.361Z,22.15
2023-05-25T12:19:07.948Z,22.18
2023-05-25T12:21:34.664Z,22.18
2023-05-25T12:24:02.799Z,22.17
2023-05-25T12:26:29.228Z,22.23
2023-05-25T12:28:59.536Z,22.17
2023-05-25T12:31:26.886Z,22.16
2023-05-25T12:34:25.828Z,22.18
2023-05-25T12:36:52.810Z,22.18
2023-05-25T12:39:31.977Z,22.01
2023-05-25T12:42:04.995Z,21.71
2023-05-25T12:44:34.860Z,21.58
2023-05-25T12:47:11.857Z,21.53
2023-05-25T12:49:38.577Z,21.47
2023-05-25T12:52:05.198Z,21.34
2023-05-25T12:54:33.109Z,21.50
2023-05-25T12:56:59.533Z,21.74
2023-05-25T12:59:25.889Z,21.80
2023-05-25T13:01:52.703Z,21.86
2023-05-25T13:04:19.124Z,21.87
2023-05-25T13:06:45.509Z,21.92
2023-05-25T13:09:14.415Z,21.93
2023-05-25T13:11:41.093Z,21.94
2023-05-25T13:14:07.487Z,21.99
2023-05-25T13:16:33.901Z,22.00
2023-05-25T13:19:00.868Z,21.99
2023-05-25T13:21:27.226Z,22.00
2023-05-25T13:23:53.838Z,22.02
2023-05-25T13:26:20.334Z,22.02
2023-05-25T13:28:46.801Z,22.02
2023-05-25T13:31:13.162Z,22.04
2023-05-25T13:33:39.530Z,22.03
2023-05-25T13:36:09.071Z,22.02
2023-05-25T13:38:35.793Z,22.02
2023-05-25T13:41:02.301Z,22.03
2023-05-25T13:43:28.731Z,22.01
2023-05-25T13:45:55.179Z,22.01
2023-05-25T13:48:21.679Z,22.00
2023-05-25T13:50:48.073Z,22.00
2023-05-25T13:53:14.440Z,22.01
2023-05-25T13:55:40.832Z,22.01
2023-05-25T13:58:07.207Z,22.02
2023-05-25T14:00:33.852Z,22.02
2023-05-25T14:03:00.401Z,22.03
2023-05-25T14:05:26.993Z,21.98
2023-05-25T14:07:55.672Z,22.01
2023-05-25T14:10:22.726Z,21.98
2023-05-25T14:12:49.212Z,22.01
2023-05-25T14:15:15.882Z,22.00
2023-05-25T14:17:42.337Z,22.03
2023-05-25T14:20:09.614Z,22.03
2023-05-25T14:22:36.023Z,22.01
2023-05-25T14:25:02.440Z,22.01
2023-05-25T14:27:28.868Z,22.03
2023-05-25T14:29:55.351Z,22.01
2023-05-25T14:32:22.050Z,22.00
2023-05-25T14:34:48.454Z,21.99
2023-05-25T14:37:14.824Z,21.99
2023-05-25T14:39:41.226Z,21.97
2023-05-25T14:42:07.628Z,21.96
2023-05-25T14:44:33.999Z,21.95
2023-05-25T14:47:00.506Z,21.95
2023-05-25T14:49:27.696Z,21.99
2023-05-25T14:51:54.258Z,22.01
2023-05-25T14:54:20.960Z,22.02
2023-05-25T14:56:47.609Z,22.01
2023-05-25T14:59:13.976Z,22.01
2023-05-25T15:01:40.547Z,22.03
2023-05-25T15:04:08.513Z,22.04
2023-05-25T15:06:36.792Z,22.03
2023-05-25T15:09:03.232Z,22.05
2023-05-25T15:11:29.659Z,22.02
2023-05-25T15:13:57.819Z,22.02
2023-05-25T15:16:24.246Z,22.02
2023-05-25T15:18:51.675Z,22.04
2023-05-25T15:21:18.076Z,22.03
2023-05-25T15:23:44.442Z,22.02
2023-05-25T15:26:11.677Z,22.01
2023-05-25T15:28:38.081Z,22.01
2023-05-25T15:31:04.489Z,21.99
2023-05-25T15:33:47.163Z,22.01
2023-05-25T15:36:16.330Z,22.00
2023-05-25T15:38:43.347Z,22.03
2023-05-25T15:41:10.273Z,21.95
2023-05-25T15:43:36.655Z,21.94
2023-05-25T15:46:03.072Z,21.93
2023-05-25T15:48:29.484Z,21.95
2023-05-25T15:50:55.851Z,21.99
2023-05-25T15:53:22.281Z,21.93
2023-05-25T15:55:48.640Z,21.94
2023-05-25T15:58:16.690Z,21.97
2023-05-25T16:00:43.316Z,21.93
2023-05-25T16:03:09.726Z,21.95
2023-05-25T16:05:36.133Z,21.92
2023-05-25T16:08:02.495Z,21.90
2023-05-25T16:10:28.894Z,21.89
2023-05-25T16:12:55.333Z,21.89
2023-05-25T16:15:22.913Z,21.89
2023-05-25T16:17:49.266Z,21.91
2023-05-25T16:20:15.721Z,21.89
2023-05-25T16:22:42.107Z,21.85
2023-05-25T16:25:08.635Z,21.82
2023-05-25T16:27:35.039Z,21.89
2023-05-25T16:30:01.467Z,21.89
2023-05-25T16:32:29.419Z,21.90
2023-05-25T16:34:55.896Z,21.89
2023-05-25T16:37:22.267Z,21.90
2023-05-25T16:39:48.637Z,21.91
2023-05-25T16:42:14.995Z,21.90
2023-05-25T16:44:41.376Z,21.89
2023-05-25T16:47:07.765Z,21.88
2023-05-25T16:49:34.137Z,21.60
2023-05-25T16:52:02.526Z,21.74
2023-05-25T16:54:29.029Z,21.77
2023-05-25T16:56:55.454Z,21.74
2023-05-25T16:59:21.863Z,21.67
2023-05-25T17:01:48.266Z,21.79
2023-05-25T17:04:14.830Z,21.81
2023-05-25T17:06:41.241Z,21.81
2023-05-25T17:09:08.617Z,21.85
2023-05-25T17:11:34.986Z,21.87
2023-05-25T17:14:01.581Z,21.87
2023-05-25T17:16:28.070Z,21.85
2023-05-25T17:18:54.513Z,21.87
2023-05-25T17:21:20.890Z,21.87
2023-05-25T17:23:48.717Z,21.87
2023-05-25T17:26:15.085Z,21.87
2023-05-25T17:28:41.775Z,21.85
2023-05-25T17:31:09.549Z,21.87
2023-05-25T17:33:36.070Z,21.85
2023-05-25T17:36:02.458Z,21.80
2023-05-25T17:38:28.853Z,21.79
2023-05-25T17:40:55.847Z,21.80
2023-05-25T17:43:22.258Z,21.78
2023-05-25T17:45:48.727Z,21.77
2023-05-25T17:48:16.222Z,21.78
2023-05-25T17:50:42.595Z,21.75
2023-05-25T17:53:08.958Z,21.75
2023-05-25T17:55:35.339Z,21.79
2023-05-25T17:58:01.719Z,21.82
2023-05-25T18:00:28.112Z,21.82
2023-05-25T18:02:54.608Z,21.80
2023-05-25T18:05:21.035Z,21.83
2023-05-25T18:07:47.408Z,21.82
2023-05-25T18:10:14.723Z,21.83
2023-05-25T18:12:41.360Z,21.81
2023-05-25T18:15:08.185Z,21.82
2023-05-25T18:17:34.629Z,21.80
2023-05-25T18:20:01.048Z,21.80
2023-05-25T18:22:27.457Z,21.80
2023-05-25T18:24:53.833Z,21.81
2023-05-25T18:27:21.586Z,21.81
2023-05-25T18:29:48.240Z,21.80
2023-05-25T18:32:14.630Z,21.82
2023-05-25T18:34:41.326Z,21.81
2023-05-25T18:37:07.712Z,21.79
2023-05-25T18:39:34.077Z,21.79
2023-05-25T18:42:00.816Z,21.79
2023-05-25T18:44:28.427Z,21.79
2023-05-25T18:46:56.565Z,21.81
2023-05-25T18:49:26.235Z,21.80
2023-05-25T18:51:52.961Z,21.76
2023-05-25T18:54:21.063Z,21.77
2023-05-25T18:56:47.422Z,21.74
2023-05-25T18:59:13.823Z,21.68
2023-05-25T19:01:40.254Z,21.71
2023-05-25T19:04:06.727Z,21.70
2023-05-25T19:06:33.216Z,21.68
2023-05-25T19:08:59.601Z,21.69
2023-05-25T19:11:26.029Z,21.69
2023-05-25T19:13:52.404Z,21.67
2023-05-25T19:16:18.975Z,21.66
2023-05-25T19:18:45.470Z,21.66
2023-05-25T19:21:11.865Z,21.68
2023-05-25T19:23:38.286Z,21.67
2023-05-25T19:26:04.642Z,21.67
2023-05-25T19:28:31.033Z,21.67
2023-05-25T19:30:57.395Z,21.68
2023-05-25T19:33:23.813Z,21.68
2023-05-25T19:35:50.468Z,21.69
2023-05-25T19:38:18.152Z,21.69
2023-05-25T19:40:44.506Z,21.68
2023-05-25T19:43:11.501Z,21.68
2023-05-25T19:45:37.912Z,21.68
2023-05-25T19:48:04.352Z,21.69
2023-05-25T19:50:30.888Z,21.70
2023-05-25T19:53:00.056Z,21.68
2023-05-25T19:55:26.746Z,21.71
2023-05-25T19:57:53.112Z,21.67
2023-05-25T20:00:26.198Z,21.65
2023-05-25T20:02:53.946Z,21.65
2023-05-25T20:05:20.446Z,21.62
2023-05-25T20:07:46.905Z,21.63
2023-05-25T20:10:13.268Z,21.60
2023-05-25T20:12:39.721Z,21.58
2023-05-25T20:15:06.216Z,21.58
2023-05-25T20:17:32.573Z,21.55
2023-05-25T20:20:00.679Z,21.55
2023-05-25T20:22:28.007Z,21.55
2023-05-25T20:24:58.007Z,21.55
2023-05-25T20:27:24.714Z,21.54
2023-05-25T20:29:51.261Z,21.52
2023-05-25T20:32:17.675Z,21.50
2023-05-25T20:34:44.099Z,21.51
2023-05-25T20:37:10.485Z,21.50
2023-05-25T20:39:36.863Z,21.50
2023-05-25T20:42:03.282Z,21.49
2023-05-25T20:44:31.815Z,21.46
2023-05-25T20:46:58.192Z,21.47
2023-05-25T20:49:26.010Z,21.47
2023-05-25T20:51:52.576Z,21.47
2023-05-25T20:54:18.964Z,21.46
2023-05-25T20:56:46.420Z,21.45
2023-05-25T20:59:12.846Z,21.44
2023-05-25T21:01:39.262Z,21.44
2023-05-25T21:04:05.987Z,21.42
2023-05-25T21:06:32.440Z,21.43
2023-05-25T21:08:58.806Z,21.41
2023-05-25T21:11:26.258Z,21.42
2023-05-25T21:13:52.641Z,21.40
2023-05-25T21:16:19.334Z,21.38
2023-05-25T21:18:45.748Z,21.37
2023-05-25T21:21:12.137Z,21.35
2023-05-25T21:23:38.537Z,21.36
2023-05-25T21:26:04.907Z,21.36
2023-05-25T21:28:32.691Z,21.39
2023-05-25T21:30:59.073Z,21.33
2023-05-25T21:33:25.577Z,21.33
2023-05-25T21:35:51.943Z,21.32
2023-05-25T21:38:18.335Z,21.30
2023-05-25T21:40:44.695Z,21.29
2023-05-25T21:43:11.116Z,21.30
2023-05-25T21:45:37.513Z,21.30
2023-05-25T21:48:04.665Z,21.29
2023-05-25T21:50:31.157Z,21.28
2023-05-25T21:52:57.537Z,21.29
2023-05-25T21:55:23.914Z,21.30
2023-05-25T21:57:50.281Z,21.28
2023-05-25T22:00:16.743Z,21.28
2023-05-25T22:02:43.168Z,21.28
2023-05-25T22:05:09.570Z,21.28
2023-05-25T22:07:35.956Z,21.28
2023-05-25T22:10:02.349Z,21.26
2023-05-25T22:12:28.774Z,21.26
2023-05-25T22:14:55.166Z,21.24
2023-05-25T22:17:21.632Z,21.23
2023-05-25T22:19:59.023Z,21.23
2023-05-25T22:22:33.536Z,21.23
2023-05-25T22:24:59.936Z,21.23
2023-05-25T22:27:26.339Z,21.23
2023-05-25T22:29:52.722Z,21.22
2023-05-25T22:32:19.098Z,21.24
2023-05-25T22:34:46.171Z,21.22
2023-05-25T22:37:13.881Z,21.22
2023-05-25T22:39:40.261Z,21.21
2023-05-25T22:42:09.545Z,21.21
2023-05-25T22:44:36.446Z,21.23
2023-05-25T22:47:03.026Z,21.21
2023-05-25T22:49:29.457Z,21.19
2023-05-25T22:51:55.887Z,21.19
2023-05-25T22:54:22.251Z,21.20
2023-05-25T22:56:48.617Z,21.18
2023-05-25T22:59:14.967Z,21.16
2023-05-25T23:01:41.399Z,21.14
2023-05-25T23:04:08.952Z,21.13
2023-05-25T23:06:36.557Z,21.11
2023-05-25T23:09:02.983Z,21.11
2023-05-25T23:11:29.364Z,21.09
2023-05-25T23:13:55.733Z,21.09
2023-05-25T23:16:22.615Z,21.09
2023-05-25T23:18:49.099Z,21.08
2023-05-25T23:21:15.711Z,21.07
2023-05-25T23:23:42.063Z,21.07
2023-05-25T23:26:08.448Z,21.06
2023-05-25T23:28:34.916Z,21.06
2023-05-25T23:31:01.330Z,21.04
2023-05-25T23:33:29.134Z,21.04
2023-05-25T23:35:55.529Z,21.03
2023-05-25T23:38:22.177Z,21.02
2023-05-25T23:40:48.564Z,21.03
2023-05-25T23:43:15.113Z,21.02
2023-05-25T23:45:41.563Z,21.02
2023-05-25T23:48:07.974Z,21.02
2023-05-25T23:50:35.603Z,21.02
2023-05-25T23:53:01.981Z,21.00
2023-05-25T23:55:28.416Z,21.00
2023-05-25T23:57:54.851Z,21.00
